createdAt,value
2023-05-19T00:02:06.183Z,8.05
2023-05-19T00:04:33.858Z,6.90
2023-05-19T00:07:02.033Z,7.72
2023-05-19T00:09:28.988Z,8.27
2023-05-19T00:11:56.969Z,8.07
2023-05-19T00:14:23.911Z,7.50
2023-05-19T00:16:50.987Z,7.43
2023-05-19T00:19:17.870Z,7.82
2023-05-19T00:21:44.701Z,7.43
2023-05-19T00:24:11.440Z,6.93
2023-05-19T00:26:38.195Z,7.72
2023-05-19T00:29:05.525Z,7.50
2023-05-19T00:31:34.255Z,7.90
2023-05-19T00:36:28.016Z,7.75
2023-05-19T00:38:54.680Z,7.90
2023-05-19T00:41:21.302Z,7.57
2023-05-19T00:43:48.046Z,8.27
2023-05-19T00:46:14.878Z,8.15
2023-05-19T00:48:41.961Z,7.78
2023-05-19T00:51:08.697Z,8.05
2023-05-19T00:53:35.802Z,8.13
2023-05-19T00:56:03.470Z,7.80
2023-05-19T00:58:31.216Z,8.07
2023-05-19T01:01:04.502Z,8.18
2023-05-19T01:03:32.753Z,7.82
2023-05-19T01:06:01.876Z,7.43
2023-05-19T01:08:29.639Z,8.30
2023-05-19T01:10:56.340Z,8.73
2023-05-19T01:13:23.479Z,7.85
2023-05-19T01:16:07.134Z,8.30
2023-05-19T01:18:58.783Z,7.70
2023-05-19T01:21:56.430Z,7.53
2023-05-19T01:24:56.965Z,7.80
2023-05-19T01:27:43.380Z,8.20
2023-05-19T01:30:26.555Z,7.90
2023-05-19T01:32:55.472Z,8.70
2023-05-19T01:37:54.616Z,8.00
2023-05-19T01:40:23.141Z,7.85
2023-05-19T01:42:52.688Z,9.00
2023-05-19T01:45:20.308Z,8.15
2023-05-19T01:47:50.949Z,8.15
2023-05-19T01:50:17.734Z,8.52
2023-05-19T01:52:44.415Z,8.23
2023-05-19T01:55:11.279Z,7.85
2023-05-19T01:58:06.600Z,9.02
2023-05-19T02:00:48.774Z,8.43
2023-05-19T02:03:30.445Z,8.73
2023-05-19T02:06:12.439Z,8.35
2023-05-19T02:08:59.219Z,8.55
2023-05-19T02:11:52.241Z,7.78
2023-05-19T02:14:30.450Z,8.75
2023-05-19T02:16:59.413Z,8.82
2023-05-19T02:19:31.725Z,8.25
2023-05-19T02:21:58.665Z,8.30
2023-05-19T02:24:25.450Z,8.27
2023-05-19T02:26:54.007Z,8.15
2023-05-19T02:29:21.167Z,8.27
2023-05-19T02:31:48.245Z,7.88
2023-05-19T02:34:15.289Z,8.02
2023-05-19T02:36:45.847Z,8.63
2023-05-19T02:39:13.152Z,7.68
2023-05-19T02:41:39.837Z,7.75
2023-05-19T02:44:06.727Z,7.85
2023-05-19T02:46:33.935Z,8.38
2023-05-19T02:49:00.704Z,8.98
2023-05-19T02:51:27.356Z,9.32
2023-05-19T02:53:54.284Z,8.57
2023-05-19T02:56:21.845Z,8.30
2023-05-19T02:58:48.633Z,7.80
2023-05-19T03:01:16.764Z,8.40
2023-05-19T03:03:43.508Z,8.82
2023-05-19T03:06:10.226Z,7.80
2023-05-19T03:08:36.887Z,8.05
2023-05-19T03:11:03.717Z,7.82
2023-05-19T03:13:30.450Z,9.30
2023-05-19T03:15:58.934Z,9.00
2023-05-19T03:18:28.971Z,9.00
2023-05-19T03:20:55.875Z,8.50
2023-05-19T03:23:22.672Z,8.95
2023-05-19T03:25:49.415Z,8.88
2023-05-19T03:28:16.107Z,9.70
2023-05-19T03:30:42.857Z,9.60
2023-05-19T03:33:09.734Z,8.50
2023-05-19T03:35:36.494Z,8.65
2023-05-19T03:38:03.198Z,8.50
2023-05-19T03:40:29.938Z,8.93
2023-05-19T03:42:56.926Z,8.07
2023-05-19T03:45:23.561Z,7.93
2023-05-19T03:47:50.254Z,9.02
2023-05-19T03:50:16.967Z,8.50
2023-05-19T03:52:45.698Z,9.20
2023-05-19T03:55:14.920Z,7.90
2023-05-19T03:57:41.815Z,8.23
2023-05-19T04:00:11.373Z,7.68
2023-05-19T04:02:38.505Z,8.55
2023-05-19T04:05:05.480Z,8.93
2023-05-19T04:07:32.163Z,8.90
2023-05-19T04:09:58.903Z,7.63
2023-05-19T04:12:25.776Z,8.95
2023-05-19T04:14:52.424Z,8.50
2023-05-19T04:17:19.098Z,9.02
2023-05-19T04:19:45.783Z,8.65
2023-05-19T04:22:12.428Z,8.23
2023-05-19T04:24:39.152Z,9.55
2023-05-19T04:27:06.137Z,9.32
2023-05-19T04:29:32.814Z,8.45
2023-05-19T04:32:01.157Z,8.38
2023-05-19T04:34:28.849Z,8.95
2023-05-19T04:36:55.731Z,8.93
2023-05-19T04:39:22.348Z,8.50
2023-05-19T04:41:48.969Z,8.90
2023-05-19T04:44:18.580Z,8.50
2023-05-19T04:46:46.244Z,9.30
2023-05-19T04:49:12.883Z,9.05
2023-05-19T04:51:41.686Z,9.25
2023-05-19T04:54:09.252Z,7.95
2023-05-19T04:56:36.765Z,9.18
2023-05-19T04:59:03.458Z,9.13
2023-05-19T05:01:31.476Z,9.65
2023-05-19T05:03:59.280Z,9.07
2023-05-19T05:06:26.683Z,8.48
2023-05-19T05:08:53.559Z,8.95
2023-05-19T05:11:20.788Z,8.65
2023-05-19T05:13:47.944Z,8.68
2023-05-19T05:16:15.287Z,8.90
2023-05-19T05:18:44.801Z,8.98
2023-05-19T05:21:12.450Z,8.52
2023-05-19T05:23:39.321Z,8.50
2023-05-19T05:26:17.570Z,8.68
2023-05-19T05:28:44.259Z,8.60
2023-05-19T05:31:10.899Z,8.00
2023-05-19T05:33:38.854Z,8.45
2023-05-19T05:36:05.840Z,8.60
2023-05-19T05:38:32.596Z,8.35
2023-05-19T05:40:59.244Z,8.75
2023-05-19T05:43:25.963Z,8.95
2023-05-19T05:45:52.711Z,8.75
2023-05-19T05:48:19.801Z,7.72
2023-05-19T05:50:46.848Z,8.15
2023-05-19T05:53:21.527Z,8.30
2023-05-19T05:55:48.632Z,8.43
2023-05-19T05:58:17.166Z,8.30
2023-05-19T06:00:43.852Z,8.60
2023-05-19T06:03:11.582Z,9.32
2023-05-19T06:05:38.706Z,9.10
2023-05-19T06:08:05.675Z,8.98
2023-05-19T06:10:32.753Z,9.38
2023-05-19T06:13:00.010Z,8.60
2023-05-19T06:15:26.907Z,8.15
2023-05-19T06:17:54.867Z,7.88
2023-05-19T06:20:21.626Z,7.60
2023-05-19T06:22:48.292Z,8.02
2023-05-19T06:25:15.032Z,5.95
2023-05-19T06:27:41.852Z,8.10
2023-05-19T06:30:09.151Z,7.85
2023-05-19T06:32:35.905Z,7.93
2023-05-19T06:35:02.734Z,8.35
2023-05-19T06:37:29.428Z,8.10
2023-05-19T06:39:56.185Z,9.02
2023-05-19T06:42:23.128Z,8.48
2023-05-19T06:44:51.555Z,9.02
2023-05-19T06:47:19.248Z,7.93
2023-05-19T06:49:46.508Z,7.63
2023-05-19T06:52:13.268Z,9.10
2023-05-19T06:54:39.989Z,8.85
2023-05-19T06:57:06.737Z,7.90
2023-05-19T06:59:33.447Z,8.27
2023-05-19T07:02:00.315Z,9.00
2023-05-19T07:04:27.478Z,8.38
2023-05-19T07:06:55.170Z,9.00
2023-05-19T07:09:22.086Z,8.43
2023-05-19T07:11:48.729Z,8.23
2023-05-19T07:14:15.605Z,9.80
2023-05-19T07:16:42.282Z,8.95
2023-05-19T07:19:09.095Z,9.18
2023-05-19T07:21:36.067Z,9.13
2023-05-19T07:24:02.870Z,8.65
2023-05-19T07:26:29.724Z,9.68
2023-05-19T07:28:56.994Z,9.70
2023-05-19T07:31:23.820Z,9.43
2023-05-19T07:33:53.030Z,8.07
2023-05-19T07:36:21.148Z,9.10
2023-05-19T07:38:48.472Z,8.98
2023-05-19T07:41:15.133Z,8.13
2023-05-19T07:43:42.984Z,8.55
2023-05-19T07:46:09.622Z,8.60
2023-05-19T07:48:36.928Z,7.90
2023-05-19T07:51:04.007Z,8.45
2023-05-19T07:53:30.760Z,9.07
2023-05-19T07:55:58.623Z,8.93
2023-05-19T07:58:25.666Z,8.23
2023-05-19T08:00:53.445Z,8.70
2023-05-19T08:03:21.043Z,9.27
2023-05-19T08:05:48.073Z,8.35
2023-05-19T08:08:16.962Z,7.82
2023-05-19T08:10:43.696Z,9.00
2023-05-19T08:13:10.624Z,9.80
2023-05-19T08:15:37.435Z,8.40
2023-05-19T08:18:05.495Z,8.35
2023-05-19T08:20:33.131Z,8.00
2023-05-19T08:23:00.142Z,8.88
2023-05-19T08:25:26.752Z,9.23
2023-05-19T08:27:53.593Z,8.05
2023-05-19T08:30:20.345Z,9.02
2023-05-19T08:32:48.884Z,7.45
2023-05-19T08:35:15.878Z,9.23
2023-05-19T08:37:42.525Z,7.47
2023-05-19T08:40:16.137Z,9.23
2023-05-19T08:42:43.039Z,8.50
2023-05-19T08:45:10.251Z,8.20
2023-05-19T08:47:37.372Z,9.00
2023-05-19T08:50:07.974Z,9.40
2023-05-19T08:52:53.610Z,8.48
2023-05-19T08:55:34.621Z,9.23
2023-05-19T08:58:03.542Z,9.10
2023-05-19T09:00:30.673Z,8.80
2023-05-19T09:03:06.111Z,10.23
2023-05-19T09:05:44.067Z,8.65
2023-05-19T09:08:11.139Z,8.68
2023-05-19T09:10:37.769Z,7.78
2023-05-19T09:13:05.550Z,8.43
2023-05-19T09:15:34.409Z,8.38
2023-05-19T09:18:13.496Z,9.00
2023-05-19T09:23:08.453Z,8.10
2023-05-19T09:25:35.458Z,8.48
2023-05-19T09:28:02.374Z,10.00
2023-05-19T09:30:29.083Z,9.15
2023-05-19T09:32:56.012Z,9.23
2023-05-19T09:35:22.738Z,9.52
2023-05-19T09:37:49.383Z,9.07
2023-05-19T09:40:16.570Z,8.07
2023-05-19T09:42:44.438Z,8.65
2023-05-19T09:45:11.711Z,8.63
2023-05-19T09:47:41.320Z,8.85
2023-05-19T09:50:10.695Z,9.35
2023-05-19T09:52:43.854Z,9.10
2023-05-19T09:55:12.996Z,9.45
2023-05-19T09:57:41.027Z,6.90
2023-05-19T10:00:12.599Z,8.50
2023-05-19T10:02:46.323Z,7.95
2023-05-19T10:05:20.729Z,8.52
2023-05-19T10:07:51.637Z,8.75
2023-05-19T10:10:21.042Z,8.73
2023-05-19T10:12:49.009Z,9.88
2023-05-19T10:15:17.124Z,9.43
2023-05-19T10:17:45.112Z,9.75
2023-05-19T10:20:14.401Z,8.00
2023-05-19T10:22:43.002Z,8.98
2023-05-19T10:25:11.526Z,9.63
2023-05-19T10:27:44.274Z,9.32
2023-05-19T10:30:16.480Z,9.35
2023-05-19T10:32:46.904Z,8.93
2023-05-19T10:35:54.645Z,8.52
2023-05-19T10:38:33.715Z,9.13
2023-05-19T10:41:14.077Z,9.07
2023-05-19T10:43:59.976Z,8.90
2023-05-19T10:46:27.465Z,9.23
2023-05-19T10:48:54.667Z,11.10
2023-05-19T10:51:21.836Z,11.07
2023-05-19T10:53:50.341Z,10.40
2023-05-19T10:56:35.099Z,11.25
2023-05-19T10:59:03.564Z,11.25
2023-05-19T11:01:41.853Z,10.93
2023-05-19T11:04:14.118Z,10.88
2023-05-19T11:06:41.434Z,11.50
2023-05-19T11:09:16.070Z,11.05
2023-05-19T11:11:53.365Z,11.48
2023-05-19T11:14:23.315Z,12.27
2023-05-19T11:16:52.434Z,12.77
2023-05-19T11:19:28.736Z,12.32
2023-05-19T11:21:57.574Z,11.07
2023-05-19T11:24:34.357Z,10.18
2023-05-19T11:27:18.657Z,11.55
2023-05-19T11:29:45.635Z,11.68
2023-05-19T11:32:13.169Z,10.63
2023-05-19T11:34:40.638Z,12.45
2023-05-19T11:37:07.877Z,12.20
2023-05-19T11:39:35.352Z,12.02
2023-05-19T11:42:02.286Z,11.40
2023-05-19T11:44:28.918Z,11.45
2023-05-19T11:46:55.797Z,11.88
2023-05-19T11:49:22.617Z,12.05
2023-05-19T11:51:49.419Z,10.90
2023-05-19T11:54:16.266Z,11.65
2023-05-19T11:56:43.200Z,10.52
2023-05-19T11:59:10.188Z,13.15
2023-05-19T12:01:37.159Z,14.13
2023-05-19T12:04:09.371Z,14.15
2023-05-19T12:06:37.320Z,13.13
2023-05-19T12:09:05.680Z,14.43
2023-05-19T12:11:32.358Z,9.95
2023-05-19T12:13:59.342Z,14.38
2023-05-19T12:16:33.835Z,14.50
2023-05-19T12:19:00.794Z,14.63
2023-05-19T12:21:33.911Z,15.25
2023-05-19T12:24:02.176Z,15.18
2023-05-19T12:26:29.048Z,14.65
2023-05-19T12:28:55.806Z,13.45
2023-05-19T12:31:25.697Z,14.50
2023-05-19T12:33:52.486Z,10.55
2023-05-19T12:36:19.442Z,15.20
2023-05-19T12:38:47.887Z,15.98
2023-05-19T12:41:14.940Z,15.35
2023-05-19T12:43:41.651Z,14.68
2023-05-19T12:46:16.468Z,15.02
2023-05-19T12:48:44.563Z,13.35
2023-05-19T12:51:16.256Z,15.55
2023-05-19T12:53:42.984Z,12.85
2023-05-19T12:56:14.683Z,14.30
2023-05-19T12:58:46.128Z,11.35
2023-05-19T13:01:17.710Z,14.98
2023-05-19T13:03:45.045Z,15.30
2023-05-19T13:06:12.205Z,14.30
2023-05-19T13:08:41.936Z,13.82
2023-05-19T13:11:08.553Z,13.95
2023-05-19T13:13:35.295Z,15.45
2023-05-19T13:16:01.945Z,14.73
2023-05-19T13:18:32.246Z,13.95
2023-05-19T13:20:58.913Z,14.05
2023-05-19T13:23:26.463Z,14.10
2023-05-19T13:25:53.298Z,15.68
2023-05-19T13:28:20.048Z,14.10
2023-05-19T13:30:46.945Z,14.10
2023-05-19T13:33:13.799Z,15.68
2023-05-19T13:35:40.510Z,15.10
2023-05-19T13:38:10.306Z,14.93
2023-05-19T13:40:37.833Z,15.35
2023-05-19T13:43:05.377Z,14.95
2023-05-19T13:45:32.332Z,14.30
2023-05-19T13:47:59.271Z,15.35
2023-05-19T13:50:26.059Z,15.32
2023-05-19T13:52:52.761Z,13.80
2023-05-19T13:55:19.684Z,14.75
2023-05-19T13:57:46.360Z,13.95
2023-05-19T14:00:13.431Z,13.45
2023-05-19T14:02:40.795Z,55.65
2023-05-19T14:05:10.940Z,19.73
2023-05-19T14:07:37.632Z,15.40
2023-05-19T14:10:06.573Z,13.10
2023-05-19T14:12:46.994Z,15.25
2023-05-19T14:15:19.348Z,13.02
2023-05-19T14:17:46.490Z,14.50
2023-05-19T14:20:13.313Z,13.70
2023-05-19T14:22:40.057Z,13.38
2023-05-19T14:25:07.403Z,15.50
2023-05-19T14:27:34.203Z,14.05
2023-05-19T14:30:00.904Z,14.88
2023-05-19T14:32:30.101Z,14.80
2023-05-19T14:34:57.142Z,14.57
2023-05-19T14:37:24.351Z,14.25
2023-05-19T14:39:51.135Z,15.38
2023-05-19T14:42:17.816Z,15.48
2023-05-19T14:44:44.607Z,13.88
2023-05-19T14:47:12.624Z,12.55
2023-05-19T14:49:39.415Z,14.15
2023-05-19T14:52:06.365Z,15.13
2023-05-19T14:54:34.013Z,14.43
2023-05-19T14:57:01.733Z,13.35
2023-05-19T14:59:29.732Z,14.93
2023-05-19T15:01:56.496Z,14.60
2023-05-19T15:04:23.407Z,15.55
2023-05-19T15:06:58.187Z,14.73
2023-05-19T15:09:32.329Z,15.80
2023-05-19T15:12:01.385Z,15.00
2023-05-19T15:14:30.561Z,15.15
2023-05-19T15:16:58.173Z,14.15
2023-05-19T15:19:25.143Z,14.60
2023-05-19T15:21:51.931Z,13.55
2023-05-19T15:24:19.415Z,14.95
2023-05-19T15:26:46.129Z,13.73
2023-05-19T15:29:12.971Z,13.90
2023-05-19T15:31:39.870Z,13.82
2023-05-19T15:34:06.683Z,13.90
2023-05-19T15:36:33.285Z,16.08
2023-05-19T15:39:00.001Z,13.43
2023-05-19T15:41:26.910Z,12.95
2023-05-19T15:43:53.823Z,13.98
2023-05-19T15:46:20.739Z,13.35
2023-05-19T15:48:47.540Z,14.23
2023-05-19T15:51:14.321Z,14.50
2023-05-19T15:53:41.053Z,13.13
2023-05-19T15:56:07.767Z,13.95
2023-05-19T15:58:34.467Z,14.02
2023-05-19T16:01:01.423Z,13.00
2023-05-19T16:03:28.238Z,13.80
2023-05-19T16:05:55.051Z,13.25
2023-05-19T16:08:21.729Z,13.07
2023-05-19T16:10:48.560Z,12.40
2023-05-19T16:13:15.249Z,12.85
2023-05-19T16:15:42.082Z,12.65
2023-05-19T16:18:08.856Z,13.40
2023-05-19T16:20:35.680Z,13.93
2023-05-19T16:23:03.317Z,13.18
2023-05-19T16:25:30.290Z,13.73
2023-05-19T16:27:57.583Z,13.57
2023-05-19T16:30:26.525Z,14.82
2023-05-19T16:32:55.979Z,14.57
2023-05-19T16:35:23.925Z,14.48
2023-05-19T16:37:50.625Z,14.63
2023-05-19T16:40:17.384Z,13.55
2023-05-19T16:42:44.074Z,15.15
2023-05-19T16:45:10.972Z,14.20
2023-05-19T16:47:37.774Z,14.98
2023-05-19T16:50:04.678Z,14.20
2023-05-19T16:52:31.456Z,14.38
2023-05-19T16:54:58.125Z,14.20
2023-05-19T16:57:24.832Z,13.95
2023-05-19T16:59:51.760Z,14.65
2023-05-19T17:02:18.783Z,15.20
2023-05-19T17:04:45.528Z,14.02
2023-05-19T17:07:15.889Z,13.55
2023-05-19T17:09:43.611Z,13.88
2023-05-19T17:12:11.105Z,14.30
2023-05-19T17:14:37.880Z,12.75
2023-05-19T17:17:05.041Z,14.95
2023-05-19T17:19:31.958Z,15.23
2023-05-19T17:21:58.788Z,19.13
2023-05-19T17:24:25.904Z,18.08
2023-05-19T17:26:52.710Z,21.98
2023-05-19T17:29:19.352Z,20.27
2023-05-19T17:31:46.187Z,17.48
2023-05-19T17:34:12.904Z,16.40
2023-05-19T17:36:39.536Z,17.48
2023-05-19T17:39:06.239Z,20.90
2023-05-19T17:41:33.032Z,19.20
2023-05-19T17:43:59.713Z,20.33
2023-05-19T17:46:26.569Z,20.08
2023-05-19T17:48:53.244Z,20.23
2023-05-19T17:51:20.168Z,18.70
2023-05-19T17:53:47.099Z,18.52
2023-05-19T17:56:14.303Z,18.92
2023-05-19T17:58:41.622Z,17.88
2023-05-19T18:01:08.843Z,17.55
2023-05-19T18:03:38.433Z,18.58
2023-05-19T18:06:05.692Z,18.95
2023-05-19T18:08:32.652Z,18.52
2023-05-19T18:11:00.399Z,17.33
2023-05-19T18:13:27.044Z,15.23
2023-05-19T18:15:53.990Z,14.93
2023-05-19T18:18:20.671Z,14.05
2023-05-19T18:20:48.498Z,13.80
2023-05-19T18:23:15.184Z,15.52
2023-05-19T18:25:48.524Z,16.30
2023-05-19T18:28:15.133Z,16.20
2023-05-19T18:30:42.195Z,14.68
2023-05-19T18:33:09.005Z,15.68
2023-05-19T18:35:36.767Z,16.55
2023-05-19T18:38:03.435Z,15.80
2023-05-19T18:40:30.085Z,13.68
2023-05-19T18:42:56.694Z,15.15
2023-05-19T18:45:23.297Z,13.80
2023-05-19T18:47:50.008Z,14.43
2023-05-19T18:50:16.727Z,15.38
2023-05-19T18:52:43.331Z,15.55
2023-05-19T18:55:10.199Z,16.25
2023-05-19T18:57:36.957Z,14.75
2023-05-19T19:00:04.466Z,15.48
2023-05-19T19:02:31.445Z,14.80
2023-05-19T19:04:58.556Z,14.80
2023-05-19T19:07:27.152Z,14.57
2023-05-19T19:09:54.563Z,15.45
2023-05-19T19:12:21.363Z,14.38
2023-05-19T19:14:48.343Z,14.05
2023-05-19T19:17:15.425Z,14.30
2023-05-19T19:19:42.394Z,14.52
2023-05-19T19:22:09.272Z,15.23
2023-05-19T19:24:36.029Z,14.40
2023-05-19T19:27:02.908Z,14.50
2023-05-19T19:29:29.699Z,13.95
2023-05-19T19:31:56.544Z,14.60
2023-05-19T19:34:23.318Z,15.07
2023-05-19T19:36:50.032Z,14.45
2023-05-19T19:39:16.986Z,15.13
2023-05-19T19:41:43.864Z,16.02
2023-05-19T19:44:10.590Z,15.85
2023-05-19T19:46:37.358Z,16.17
2023-05-19T19:49:04.109Z,15.90
2023-05-19T19:51:31.759Z,16.15
2023-05-19T19:53:58.848Z,15.93
2023-05-19T19:56:27.687Z,16.23
2023-05-19T19:58:56.892Z,15.38
2023-05-19T20:01:27.964Z,14.07
2023-05-19T20:03:56.136Z,16.38
2023-05-19T20:06:23.314Z,15.68
2023-05-19T20:08:50.115Z,14.80
2023-05-19T20:11:16.875Z,14.65
2023-05-19T20:13:43.586Z,15.15
2023-05-19T20:16:10.402Z,15.15
2023-05-19T20:18:37.196Z,15.35
2023-05-19T20:21:03.947Z,14.82
2023-05-19T20:23:30.658Z,15.68
2023-05-19T20:26:10.884Z,15.20
2023-05-19T20:28:38.962Z,15.57
2023-05-19T20:31:06.534Z,14.35
2023-05-19T20:33:33.172Z,14.90
2023-05-19T20:35:59.953Z,15.63
2023-05-19T20:38:26.725Z,16.60
2023-05-19T20:40:54.868Z,16.00
2023-05-19T20:43:21.689Z,15.85
2023-05-19T20:45:48.548Z,14.70
2023-05-19T20:48:16.104Z,15.82
2023-05-19T20:50:42.996Z,16.52
2023-05-19T20:53:09.747Z,16.27
2023-05-19T20:55:36.404Z,16.38
2023-05-19T20:58:03.153Z,14.95
2023-05-19T21:00:30.749Z,15.98
2023-05-19T21:02:57.879Z,16.00
2023-05-19T21:05:24.900Z,15.18
2023-05-19T21:07:51.611Z,15.05
2023-05-19T21:10:18.518Z,15.50
2023-05-19T21:12:45.211Z,15.05
2023-05-19T21:15:14.972Z,15.65
2023-05-19T21:17:41.813Z,14.23
2023-05-19T21:20:09.218Z,15.10
2023-05-19T21:22:36.136Z,14.02
2023-05-19T21:25:02.916Z,15.02
2023-05-19T21:27:30.018Z,14.45
2023-05-19T21:29:56.770Z,15.20
2023-05-19T21:32:23.510Z,15.13
2023-05-19T21:34:50.405Z,14.73
2023-05-19T21:37:17.785Z,14.20
2023-05-19T21:39:44.927Z,13.68
2023-05-19T21:42:11.820Z,15.05
2023-05-19T21:44:38.580Z,14.00
2023-05-19T21:47:05.321Z,13.68
2023-05-19T21:49:31.980Z,13.00
2023-05-19T21:51:58.758Z,13.13
2023-05-19T21:54:25.518Z,13.15
2023-05-19T21:56:52.235Z,13.38
2023-05-19T21:59:19.687Z,12.25
2023-05-19T22:01:46.913Z,12.73
2023-05-19T22:04:16.467Z,11.90
2023-05-19T22:06:43.320Z,11.95
2023-05-19T22:09:10.422Z,11.80
2023-05-19T22:11:37.110Z,12.43
2023-05-19T22:14:03.793Z,13.10
2023-05-19T22:16:31.253Z,11.55
2023-05-19T22:18:58.182Z,11.50
2023-05-19T22:21:25.070Z,12.40
2023-05-19T22:23:52.468Z,12.15
2023-05-19T22:26:19.174Z,12.68
2023-05-19T22:28:45.879Z,12.48
2023-05-19T22:31:12.615Z,12.68
2023-05-19T22:33:39.269Z,13.27
2023-05-19T22:36:06.667Z,13.30
2023-05-19T22:38:33.307Z,12.63
2023-05-19T22:41:00.015Z,12.40
2023-05-19T22:43:26.636Z,12.63
2023-05-19T22:45:53.405Z,12.88
2023-05-19T22:48:20.041Z,12.93
2023-05-19T22:50:46.804Z,12.25
2023-05-19T22:53:13.443Z,12.73
2023-05-19T22:55:40.209Z,13.85
2023-05-19T22:58:06.887Z,12.35
2023-05-19T23:00:33.540Z,13.70
2023-05-19T23:03:00.325Z,12.55
2023-05-19T23:05:27.094Z,12.98
2023-05-19T23:07:53.811Z,12.98
2023-05-19T23:10:20.615Z,12.25
2023-05-19T23:12:47.333Z,12.10
2023-05-19T23:15:14.036Z,12.63
2023-05-19T23:17:40.676Z,13.18
2023-05-19T23:20:08.138Z,12.27
2023-05-19T23:22:34.781Z,12.57
2023-05-19T23:25:05.806Z,13.13
2023-05-19T23:27:32.465Z,12.30
2023-05-19T23:29:59.118Z,12.48
2023-05-19T23:32:25.840Z,12.60
2023-05-19T23:34:52.545Z,12.35
2023-05-19T23:37:19.219Z,11.73
2023-05-19T23:39:45.881Z,11.98
2023-05-19T23:42:13.305Z,11.52
2023-05-19T23:44:40.031Z,11.02
2023-05-19T23:47:07.073Z,11.63
2023-05-19T23:49:34.015Z,11.00
2023-05-19T23:52:00.691Z,10.93
2023-05-19T23:54:27.435Z,12.23
2023-05-19T23:56:55.923Z,11.52
2023-05-19T23:59:22.783Z,12.35
